createdAt,value
2023-02-02T00:01:54.399Z,14.50
2023-02-02T00:04:25.152Z,18.83
2023-02-02T00:06:53.935Z,19.60
2023-02-02T00:09:22.875Z,13.03
2023-02-02T00:11:51.996Z,20.17
2023-02-02T00:14:22.030Z,11.53
2023-02-02T00:16:51.899Z,17.10
2023-02-02T00:19:23.052Z,17.83
2023-02-02T00:21:51.640Z,22.03
2023-02-02T00:24:20.884Z,18.73
2023-02-02T00:26:53.114Z,22.43
2023-02-02T00:29:25.352Z,20.43
2023-02-02T00:31:54.285Z,21.40
2023-02-02T00:34:23.573Z,19.97
2023-02-02T00:36:52.886Z,19.83
2023-02-02T00:39:25.396Z,15.67
2023-02-02T00:41:53.904Z,13.97
2023-02-02T00:44:41.667Z,23.17
2023-02-02T00:47:10.082Z,15.97
2023-02-02T00:49:38.380Z,18.10
2023-02-02T00:52:07.029Z,17.80
2023-02-02T00:54:35.432Z,19.90
2023-02-02T00:57:03.964Z,20.40
2023-02-02T00:59:33.882Z,23.30
2023-02-02T01:02:02.261Z,17.03
2023-02-02T01:04:30.788Z,20.67
2023-02-02T01:06:59.153Z,16.60
2023-02-02T01:09:27.591Z,29.27
2023-02-02T01:11:56.073Z,22.30
2023-02-02T01:14:24.577Z,20.00
2023-02-02T01:16:54.230Z,15.27
2023-02-02T01:19:22.735Z,23.63
2023-02-02T01:21:52.064Z,20.87
2023-02-02T01:24:20.428Z,21.73
2023-02-02T01:26:48.851Z,14.57
2023-02-02T01:29:17.345Z,24.57
2023-02-02T01:31:45.998Z,24.70
2023-02-02T01:34:15.773Z,30.50
2023-02-02T01:36:44.155Z,22.73
2023-02-02T01:39:12.710Z,22.67
2023-02-02T01:41:42.322Z,21.87
2023-02-02T01:45:05.159Z,22.13
2023-02-02T01:47:39.133Z,21.37
2023-02-02T01:50:11.464Z,25.00
2023-02-02T01:52:41.500Z,27.97
2023-02-02T01:55:14.240Z,26.93
2023-02-02T01:57:48.350Z,23.07
2023-02-02T02:00:18.618Z,25.20
2023-02-02T02:02:49.613Z,20.70
2023-02-02T02:05:27.463Z,20.73
2023-02-02T02:08:05.317Z,21.10
2023-02-02T02:10:34.976Z,27.63
2023-02-02T02:13:03.424Z,31.17
2023-02-02T02:15:53.323Z,21.27
2023-02-02T02:18:33.547Z,22.93
2023-02-02T02:21:51.648Z,21.03
2023-02-02T02:25:18.298Z,18.10
2023-02-02T02:28:49.305Z,18.40
2023-02-02T02:31:56.032Z,20.30
2023-02-02T02:34:35.383Z,26.40
2023-02-02T02:37:12.025Z,21.10
2023-02-02T02:39:47.102Z,15.33
2023-02-02T02:42:20.166Z,21.90
2023-02-02T02:44:50.512Z,17.80
2023-02-02T02:47:21.239Z,18.37
2023-02-02T02:49:50.927Z,24.87
2023-02-02T02:52:19.265Z,22.50
2023-02-02T02:54:51.701Z,17.90
2023-02-02T02:57:40.047Z,18.50
2023-02-02T03:00:27.992Z,19.63
2023-02-02T03:03:09.497Z,14.80
2023-02-02T03:05:50.856Z,17.03
2023-02-02T03:08:26.057Z,19.57
2023-02-02T03:10:57.042Z,20.57
2023-02-02T03:13:26.121Z,27.37
2023-02-02T03:15:54.727Z,17.47
2023-02-02T03:18:29.135Z,29.30
2023-02-02T03:20:57.760Z,21.43
2023-02-02T03:23:26.519Z,21.60
2023-02-02T03:25:55.597Z,21.40
2023-02-02T03:28:25.534Z,23.80
2023-02-02T03:30:55.131Z,20.97
2023-02-02T03:33:25.414Z,18.80
2023-02-02T03:35:54.178Z,27.03
2023-02-02T03:38:22.552Z,15.57
2023-02-02T03:40:52.661Z,17.80
2023-02-02T03:43:25.019Z,20.73
2023-02-02T03:45:58.561Z,16.87
2023-02-02T03:48:28.800Z,20.47
2023-02-02T03:50:57.296Z,16.93
2023-02-02T03:53:26.016Z,18.77
2023-02-02T03:55:55.080Z,24.10
2023-02-02T03:58:23.627Z,18.63
2023-02-02T04:00:52.256Z,19.60
2023-02-02T04:03:20.612Z,22.70
2023-02-02T04:05:52.505Z,18.77
2023-02-02T04:08:20.766Z,23.00
2023-02-02T04:10:49.032Z,21.27
2023-02-02T04:13:17.367Z,14.77
2023-02-02T04:15:45.768Z,25.07
2023-02-02T04:18:14.307Z,18.07
2023-02-02T04:20:42.687Z,24.57
2023-02-02T04:23:12.763Z,18.07
2023-02-02T04:25:41.166Z,18.47
2023-02-02T04:28:09.947Z,10.87
2023-02-02T04:30:38.743Z,10.17
2023-02-02T04:33:07.349Z,7.47
2023-02-02T04:35:45.554Z,8.57
2023-02-02T04:38:15.812Z,9.53
2023-02-02T04:40:46.693Z,5.07
2023-02-02T04:43:16.106Z,6.70
2023-02-02T04:45:45.070Z,3.60
2023-02-02T04:48:13.501Z,3.90
2023-02-02T04:50:41.830Z,6.83
2023-02-02T04:53:10.139Z,7.20
2023-02-02T04:55:40.227Z,3.87
2023-02-02T04:58:08.632Z,3.97
2023-02-02T05:00:37.111Z,3.43
2023-02-02T05:03:05.616Z,7.10
2023-02-02T05:05:33.991Z,6.57
2023-02-02T05:08:02.292Z,4.47
2023-02-02T05:10:31.224Z,3.10
2023-02-02T05:13:00.970Z,4.70
2023-02-02T05:15:29.382Z,6.50
2023-02-02T05:17:57.760Z,6.87
2023-02-02T05:20:26.274Z,4.80
2023-02-02T05:22:54.687Z,10.33
2023-02-02T05:25:23.644Z,4.20
2023-02-02T05:27:52.252Z,6.70
2023-02-02T05:30:22.379Z,5.60
2023-02-02T05:32:50.768Z,7.43
2023-02-02T05:35:19.247Z,4.17
2023-02-02T05:37:47.806Z,8.60
2023-02-02T05:40:16.575Z,6.70
2023-02-02T05:42:49.536Z,4.33
2023-02-02T05:45:18.300Z,4.43
2023-02-02T05:47:48.030Z,6.73
2023-02-02T05:50:17.177Z,11.50
2023-02-02T05:52:48.374Z,3.47
2023-02-02T05:55:18.478Z,2.80
2023-02-02T05:57:46.894Z,4.07
2023-02-02T06:00:16.655Z,5.20
2023-02-02T06:02:45.572Z,5.67
2023-02-02T06:05:15.408Z,6.60
2023-02-02T06:07:43.796Z,4.57
2023-02-02T06:10:12.523Z,6.00
2023-02-02T06:12:40.871Z,4.47
2023-02-02T06:15:11.720Z,6.60
2023-02-02T06:17:40.056Z,3.93
2023-02-02T06:20:09.521Z,7.07
2023-02-02T06:22:39.154Z,7.47
2023-02-02T06:25:08.894Z,6.43
2023-02-02T06:27:37.429Z,9.90
2023-02-02T06:30:06.724Z,3.57
2023-02-02T06:32:35.147Z,8.20
2023-02-02T06:35:03.854Z,5.67
2023-02-02T06:37:34.209Z,5.40
2023-02-02T06:40:03.994Z,6.40
2023-02-02T06:42:32.348Z,7.83
2023-02-02T06:45:00.664Z,7.30
2023-02-02T06:47:29.072Z,4.90
2023-02-02T06:49:57.613Z,4.63
2023-02-02T06:52:25.943Z,8.00
2023-02-02T06:54:54.291Z,4.50
2023-02-02T06:57:24.107Z,7.23
2023-02-02T06:59:52.389Z,5.80
2023-02-02T07:02:20.849Z,8.70
2023-02-02T07:04:49.348Z,5.43
2023-02-02T07:07:21.454Z,3.23
2023-02-02T07:09:58.105Z,4.40
2023-02-02T07:12:28.368Z,5.23
2023-02-02T07:14:57.013Z,6.63
2023-02-02T07:17:25.411Z,7.80
2023-02-02T07:19:53.662Z,6.43
2023-02-02T07:22:22.060Z,8.53
2023-02-02T07:24:50.391Z,6.03
2023-02-02T07:27:18.761Z,5.17
2023-02-02T07:29:48.463Z,6.27
2023-02-02T07:32:16.974Z,7.13
2023-02-02T07:34:45.218Z,7.37
2023-02-02T07:37:13.464Z,10.57
2023-02-02T07:39:43.351Z,7.70
2023-02-02T07:42:13.467Z,8.13
2023-02-02T07:44:41.815Z,8.30
2023-02-02T07:47:11.523Z,8.07
2023-02-02T07:49:39.933Z,8.07
2023-02-02T07:52:08.426Z,7.03
2023-02-02T07:54:36.870Z,9.00
2023-02-02T07:57:05.330Z,5.67
2023-02-02T07:59:33.754Z,5.93
2023-02-02T08:02:02.199Z,9.47
2023-02-02T08:04:33.561Z,4.30
2023-02-02T08:07:02.052Z,3.87
2023-02-02T08:09:31.160Z,8.87
2023-02-02T08:12:01.852Z,10.50
2023-02-02T08:14:30.486Z,7.90
2023-02-02T08:16:58.797Z,9.77
2023-02-02T08:19:27.160Z,8.50
2023-02-02T08:21:57.036Z,6.33
2023-02-02T08:24:25.439Z,6.20
2023-02-02T08:26:54.002Z,6.87
2023-02-02T08:29:22.395Z,5.60
2023-02-02T08:31:50.968Z,5.23
2023-02-02T08:34:19.397Z,6.93
2023-02-02T08:36:47.659Z,6.87
2023-02-02T08:39:17.400Z,6.07
2023-02-02T08:41:46.379Z,5.57
2023-02-02T08:44:17.081Z,4.80
2023-02-02T08:46:45.397Z,6.77
2023-02-02T08:49:14.335Z,7.37
2023-02-02T08:51:43.171Z,6.53
2023-02-02T08:54:11.564Z,7.07
2023-02-02T08:56:42.050Z,3.50
2023-02-02T08:59:10.487Z,5.93
2023-02-02T09:01:39.024Z,4.13
2023-02-02T09:04:09.413Z,3.73
2023-02-02T09:06:40.446Z,3.10
2023-02-02T09:09:11.659Z,7.57
2023-02-02T09:11:42.087Z,3.20
2023-02-02T09:14:12.310Z,3.53
2023-02-02T09:16:40.921Z,9.57
2023-02-02T09:19:09.543Z,5.33
2023-02-02T09:21:38.019Z,4.03
2023-02-02T09:24:11.684Z,7.23
2023-02-02T09:26:41.777Z,1.60
2023-02-02T09:29:14.394Z,4.40
2023-02-02T09:31:43.250Z,3.30
2023-02-02T09:34:13.913Z,3.83
2023-02-02T09:36:44.224Z,3.70
2023-02-02T09:39:15.104Z,4.97
2023-02-02T09:42:19.931Z,2.97
2023-02-02T09:45:14.837Z,5.53
2023-02-02T09:47:57.816Z,3.70
2023-02-02T09:50:45.303Z,5.23
2023-02-02T09:53:24.543Z,5.37
2023-02-02T09:55:55.972Z,5.07
2023-02-02T09:58:30.084Z,5.73
2023-02-02T10:01:06.875Z,4.07
2023-02-02T10:03:42.015Z,6.57
2023-02-02T10:06:26.651Z,4.23
2023-02-02T10:09:01.003Z,3.77
2023-02-02T10:11:35.614Z,3.37
2023-02-02T10:14:14.351Z,5.03
2023-02-02T10:16:43.319Z,6.03
2023-02-02T10:19:13.681Z,3.33
2023-02-02T10:21:49.682Z,5.47
2023-02-02T10:24:21.995Z,5.00
2023-02-02T10:26:53.561Z,4.13
2023-02-02T10:29:48.012Z,3.87
2023-02-02T10:32:24.112Z,5.43
2023-02-02T10:35:28.632Z,2.20
2023-02-02T10:38:03.151Z,4.60
2023-02-02T10:40:48.378Z,6.67
2023-02-02T10:43:54.570Z,2.97
2023-02-02T10:46:27.512Z,7.33
2023-02-02T10:49:12.999Z,5.00
2023-02-02T10:51:42.213Z,7.83
2023-02-02T10:54:31.064Z,7.20
2023-02-02T10:57:02.327Z,5.00
2023-02-02T10:59:34.818Z,4.17
2023-02-02T11:02:19.965Z,4.17
2023-02-02T11:05:06.365Z,5.13
2023-02-02T11:07:34.774Z,5.27
2023-02-02T11:10:03.125Z,5.57
2023-02-02T11:12:36.763Z,5.60
2023-02-02T11:15:09.028Z,4.40
2023-02-02T11:17:39.680Z,5.67
2023-02-02T11:20:26.881Z,4.07
2023-02-02T11:23:03.169Z,5.33
2023-02-02T11:25:35.515Z,5.07
2023-02-02T11:28:19.000Z,6.73
2023-02-02T11:30:52.607Z,4.67
2023-02-02T11:33:30.319Z,4.17
2023-02-02T11:36:01.055Z,5.63
2023-02-02T11:38:30.315Z,5.17
2023-02-02T11:41:03.741Z,7.80
2023-02-02T11:43:41.019Z,5.07
2023-02-02T11:46:21.467Z,5.80
2023-02-02T11:48:58.805Z,6.57
2023-02-02T11:51:29.534Z,6.33
2023-02-02T11:54:06.788Z,6.60
2023-02-02T11:56:38.233Z,6.73
2023-02-02T11:59:06.794Z,5.17
2023-02-02T12:01:39.649Z,3.63
2023-02-02T12:04:26.532Z,4.73
2023-02-02T12:06:55.113Z,3.93
2023-02-02T12:09:25.881Z,8.47
2023-02-02T12:12:03.340Z,5.60
2023-02-02T12:14:44.122Z,8.80
2023-02-02T12:17:27.697Z,8.30
2023-02-02T12:20:33.474Z,3.20
2023-02-02T12:23:36.953Z,6.03
2023-02-02T12:26:30.553Z,5.30
2023-02-02T12:29:28.276Z,3.50
2023-02-02T12:32:17.960Z,2.40
2023-02-02T12:35:00.684Z,5.40
2023-02-02T12:37:51.549Z,6.13
2023-02-02T12:40:43.695Z,3.25
2023-02-02T12:43:27.189Z,3.27
2023-02-02T12:46:23.190Z,5.03
2023-02-02T12:49:08.361Z,7.87
2023-02-02T12:51:54.252Z,5.17
2023-02-02T12:54:53.127Z,5.77
2023-02-02T12:57:35.446Z,9.30
2023-02-02T13:00:28.162Z,3.30
2023-02-02T13:03:11.705Z,6.47
2023-02-02T13:05:55.663Z,7.07
2023-02-02T13:08:30.593Z,5.37
2023-02-02T13:11:28.236Z,5.87
2023-02-02T13:13:59.618Z,6.50
2023-02-02T13:16:31.556Z,6.97
2023-02-02T13:19:08.051Z,6.87
2023-02-02T13:21:38.509Z,7.30
2023-02-02T13:24:10.958Z,6.83
2023-02-02T13:26:45.745Z,4.40
2023-02-02T13:29:34.064Z,6.80
2023-02-02T13:32:22.595Z,4.30
2023-02-02T13:34:56.862Z,4.20
2023-02-02T13:37:37.108Z,5.00
2023-02-02T13:40:16.991Z,5.00
2023-02-02T13:42:53.465Z,6.00
2023-02-02T13:45:41.439Z,5.03
2023-02-02T13:48:25.603Z,6.70
2023-02-02T13:51:43.374Z,4.80
2023-02-02T13:54:55.199Z,6.97
2023-02-02T13:58:05.354Z,4.47
2023-02-02T14:00:41.019Z,5.93
2023-02-02T14:03:38.702Z,4.67
2023-02-02T14:06:12.303Z,4.30
2023-02-02T14:08:48.949Z,4.00
2023-02-02T14:11:28.110Z,5.30
2023-02-02T14:14:18.655Z,7.13
2023-02-02T14:16:52.416Z,5.23
2023-02-02T14:19:55.260Z,3.13
2023-02-02T14:22:50.988Z,7.77
2023-02-02T14:25:55.654Z,6.10
2023-02-02T14:28:57.188Z,5.73
2023-02-02T14:31:43.532Z,6.23
2023-02-02T14:34:35.715Z,5.30
2023-02-02T14:37:39.600Z,6.17
2023-02-02T14:40:44.880Z,4.97
2023-02-02T14:43:41.295Z,7.23
2023-02-02T14:46:48.200Z,5.47
2023-02-02T14:49:29.100Z,5.37
2023-02-02T14:52:05.670Z,5.90
2023-02-02T14:54:39.270Z,5.10
2023-02-02T14:57:26.387Z,5.17
2023-02-02T14:59:56.503Z,5.70
2023-02-02T15:02:33.095Z,7.77
2023-02-02T15:05:40.427Z,8.63
2023-02-02T15:08:26.195Z,5.93
2023-02-02T15:11:32.088Z,7.43
2023-02-02T15:14:14.175Z,7.93
2023-02-02T15:16:44.023Z,6.60
2023-02-02T15:19:25.864Z,6.83
2023-02-02T15:21:58.570Z,6.63
2023-02-02T15:24:31.045Z,4.93
2023-02-02T15:27:03.127Z,6.33
2023-02-02T15:29:42.750Z,8.80
2023-02-02T15:32:17.173Z,9.50
2023-02-02T15:34:50.385Z,10.33
2023-02-02T15:37:24.875Z,11.23
2023-02-02T15:39:59.905Z,15.00
2023-02-02T15:42:56.508Z,14.47
2023-02-02T15:45:43.554Z,10.90
2023-02-02T15:48:23.905Z,11.00
2023-02-02T15:50:57.669Z,12.17
2023-02-02T15:53:29.327Z,9.53
2023-02-02T15:55:59.365Z,8.70
2023-02-02T15:58:33.604Z,12.23
2023-02-02T16:01:06.741Z,14.93
2023-02-02T16:03:46.789Z,14.50
2023-02-02T16:06:15.346Z,15.40
2023-02-02T16:08:44.476Z,14.50
2023-02-02T16:11:17.318Z,14.50
2023-02-02T16:13:58.813Z,11.97
2023-02-02T16:16:30.059Z,12.77
2023-02-02T16:19:14.694Z,13.37
2023-02-02T16:21:49.702Z,14.83
2023-02-02T16:24:24.508Z,16.57
2023-02-02T16:26:56.995Z,15.77
2023-02-02T16:29:28.066Z,16.97
2023-02-02T16:31:58.377Z,14.83
2023-02-02T16:34:48.170Z,18.03
2023-02-02T16:37:27.712Z,22.67
2023-02-02T16:39:59.035Z,20.00
2023-02-02T16:42:31.632Z,18.33
2023-02-02T16:45:01.725Z,16.53
2023-02-02T16:47:40.564Z,15.40
2023-02-02T16:50:32.206Z,13.50
2023-02-02T16:53:04.560Z,17.00
2023-02-02T16:55:49.984Z,15.77
2023-02-02T16:58:24.017Z,14.63
2023-02-02T17:01:14.083Z,17.17
2023-02-02T17:03:51.435Z,14.33
2023-02-02T17:06:35.700Z,17.07
2023-02-02T17:09:35.198Z,15.97
2023-02-02T17:12:14.335Z,16.03
2023-02-02T17:14:56.677Z,13.13
2023-02-02T17:17:25.451Z,17.90
2023-02-02T17:19:54.015Z,15.93
2023-02-02T17:22:25.328Z,15.57
2023-02-02T17:24:54.107Z,16.90
2023-02-02T17:27:29.150Z,18.07
2023-02-02T17:30:01.379Z,15.40
2023-02-02T17:32:29.770Z,17.80
2023-02-02T17:34:58.185Z,19.17
2023-02-02T17:37:26.539Z,21.50
2023-02-02T17:39:54.854Z,18.63
2023-02-02T17:42:26.779Z,20.60
2023-02-02T17:44:55.337Z,18.97
2023-02-02T17:47:25.111Z,25.53
2023-02-02T17:49:53.652Z,27.93
2023-02-02T17:52:22.360Z,24.83
2023-02-02T17:54:50.702Z,24.73
2023-02-02T17:57:20.157Z,21.57
2023-02-02T17:59:48.549Z,26.43
2023-02-02T18:02:17.759Z,25.50
2023-02-02T18:04:59.273Z,29.73
2023-02-02T18:07:27.603Z,29.17
2023-02-02T18:09:55.977Z,25.40
2023-02-02T18:12:25.342Z,26.17
2023-02-02T18:14:55.790Z,28.57
2023-02-02T18:17:26.280Z,35.50
2023-02-02T18:19:56.734Z,31.00
2023-02-02T18:22:36.025Z,30.10
2023-02-02T18:25:13.809Z,34.80
2023-02-02T18:27:51.590Z,29.43
2023-02-02T18:30:29.294Z,30.83
2023-02-02T18:32:57.642Z,34.80
2023-02-02T18:35:28.422Z,33.97
2023-02-02T18:37:57.841Z,30.90
2023-02-02T18:40:26.265Z,30.80
2023-02-02T18:42:54.862Z,34.07
2023-02-02T18:45:23.715Z,31.13
2023-02-02T18:47:52.415Z,29.80
2023-02-02T18:50:22.138Z,24.73
2023-02-02T18:52:51.807Z,21.90
2023-02-02T18:55:20.165Z,25.63
2023-02-02T18:57:48.649Z,24.37
2023-02-02T19:00:17.522Z,24.23
2023-02-02T19:02:45.910Z,26.77
2023-02-02T19:05:31.706Z,23.43
2023-02-02T19:08:03.420Z,26.73
2023-02-02T19:10:31.923Z,29.97
2023-02-02T19:13:13.370Z,27.57
2023-02-02T19:15:42.424Z,25.90
2023-02-02T19:18:17.014Z,26.50
2023-02-02T19:20:46.126Z,22.77
2023-02-02T19:23:19.131Z,23.80
2023-02-02T19:25:51.660Z,25.30
2023-02-02T19:28:29.307Z,25.10
2023-02-02T19:31:00.105Z,26.77
2023-02-02T19:33:38.603Z,19.20
2023-02-02T19:36:12.465Z,19.50
2023-02-02T19:38:42.437Z,18.17
2023-02-02T19:41:20.273Z,22.17
2023-02-02T19:43:49.057Z,21.50
2023-02-02T19:46:22.517Z,22.30
2023-02-02T19:48:55.695Z,23.10
2023-02-02T19:51:42.967Z,19.73
2023-02-02T19:54:29.738Z,25.50
2023-02-02T19:57:01.826Z,16.67
2023-02-02T19:59:36.244Z,18.87
2023-02-02T20:02:53.595Z,18.13
2023-02-02T20:05:24.338Z,19.43
2023-02-02T20:08:02.389Z,20.37
2023-02-02T20:10:42.562Z,15.03
2023-02-02T20:13:22.400Z,15.07
2023-02-02T20:15:54.684Z,14.70
2023-02-02T20:18:35.483Z,13.70
2023-02-02T20:21:08.952Z,16.93
2023-02-02T20:23:42.568Z,18.53
2023-02-02T20:26:24.313Z,14.83
2023-02-02T20:28:54.573Z,17.33
2023-02-02T20:31:26.592Z,15.50
2023-02-02T20:33:57.591Z,16.83
2023-02-02T20:36:36.773Z,19.53
2023-02-02T20:39:28.916Z,14.03
2023-02-02T20:41:58.863Z,13.67
2023-02-02T20:44:29.475Z,13.57
2023-02-02T20:47:00.386Z,13.37
2023-02-02T20:49:31.729Z,13.53
2023-02-02T20:52:03.653Z,16.07
2023-02-02T20:54:32.834Z,14.30
2023-02-02T20:57:03.214Z,11.47
2023-02-02T20:59:31.601Z,10.10
2023-02-02T21:02:00.811Z,10.50
2023-02-02T21:04:29.687Z,9.17
2023-02-02T21:07:00.449Z,9.87
2023-02-02T21:09:28.987Z,14.60
2023-02-02T21:11:57.334Z,14.50
2023-02-02T21:14:27.130Z,12.63
2023-02-02T21:17:12.695Z,8.93
2023-02-02T21:19:42.622Z,11.93
2023-02-02T21:22:11.283Z,9.13
2023-02-02T21:24:39.683Z,10.37
2023-02-02T21:27:08.994Z,14.57
2023-02-02T21:29:38.970Z,8.67
2023-02-02T21:32:07.607Z,14.70
2023-02-02T21:34:37.692Z,11.40
2023-02-02T21:37:13.679Z,7.90
2023-02-02T21:39:48.130Z,10.90
2023-02-02T21:42:18.892Z,13.77
2023-02-02T21:44:54.206Z,10.73
2023-02-02T21:47:34.159Z,8.07
2023-02-02T21:50:15.862Z,10.97
2023-02-02T21:52:44.388Z,8.60
2023-02-02T21:55:32.786Z,11.17
2023-02-02T21:58:02.601Z,7.77
2023-02-02T22:00:34.953Z,9.93
2023-02-02T22:03:03.613Z,12.00
2023-02-02T22:05:37.838Z,9.80
2023-02-02T22:08:22.703Z,9.37
2023-02-02T22:10:51.109Z,10.03
2023-02-02T22:13:21.953Z,8.37
2023-02-02T22:15:54.011Z,10.70
2023-02-02T22:18:24.853Z,6.30
2023-02-02T22:20:56.563Z,8.00
2023-02-02T22:23:28.932Z,5.63
2023-02-02T22:25:59.829Z,9.37
2023-02-02T22:28:31.527Z,8.57
2023-02-02T22:31:01.717Z,6.57
2023-02-02T22:33:30.035Z,11.70
2023-02-02T22:35:58.359Z,7.97
2023-02-02T22:38:27.168Z,5.30
2023-02-02T22:40:55.770Z,7.53
2023-02-02T22:43:24.090Z,6.77
2023-02-02T22:45:52.490Z,9.40
2023-02-02T22:48:22.248Z,4.87
2023-02-02T22:50:50.566Z,5.57
2023-02-02T22:53:18.914Z,5.07
2023-02-02T22:55:47.247Z,5.30
2023-02-02T22:58:15.551Z,7.23
2023-02-02T23:00:43.855Z,6.53
2023-02-02T23:03:12.324Z,4.60
2023-02-02T23:05:42.156Z,5.67
2023-02-02T23:08:10.528Z,5.27
2023-02-02T23:10:39.008Z,6.60
2023-02-02T23:13:08.251Z,5.73
2023-02-02T23:15:36.892Z,5.03
2023-02-02T23:18:06.042Z,3.93
2023-02-02T23:20:34.675Z,5.07
2023-02-02T23:23:05.312Z,4.90
2023-02-02T23:25:33.827Z,5.37
2023-02-02T23:28:02.151Z,6.03
2023-02-02T23:30:30.545Z,5.00
2023-02-02T23:32:59.011Z,4.13
2023-02-02T23:35:27.339Z,5.17
2023-02-02T23:37:55.664Z,4.67
2023-02-02T23:40:25.704Z,5.67
2023-02-02T23:42:54.273Z,5.77
2023-02-02T23:45:22.689Z,4.67
2023-02-02T23:47:50.991Z,7.50
2023-02-02T23:50:19.512Z,3.00
2023-02-02T23:52:47.951Z,7.20
2023-02-02T23:55:16.791Z,7.40
2023-02-02T23:57:46.565Z,4.17
